Time;durP1;ratioP1;P1;durP2;ratioP2;P2;SDS_P1;SDS_P2;PMS_P1;PMS_P2;Temp;Humidity;BMP_temperature;BMP_pressure;BME280_temperature;BME280_humidity;BME280_pressure;Samples;Min_cycle;Max_cycle;Signal;HPM_P1;HPM_P2
2022/10/17 00:01:29;;;;;;;2.00;0.68;;;;;;;15.20;100.00;98913.75;15278936;19;20555;-59
2022/10/17 00:06:54;;;;;;;2.63;0.90;;;;;;;15.16;100.00;98901.53;15269074;19;20027;-59
2022/10/17 00:12:21;;;;;;;1.13;0.80;;;;;;;15.06;100.00;98918.03;15277610;19;20015;-58
2022/10/17 00:17:47;;;;;;;1.05;0.80;;;;;;;15.02;100.00;98920.28;15281148;19;20429;-57
2022/10/17 00:23:12;;;;;;;2.22;0.80;;;;;;;15.04;100.00;98917.41;15271951;19;20019;-56
2022/10/17 00:28:40;;;;;;;1.42;0.70;;;;;;;15.03;100.00;98921.97;15276946;19;20029;-56
2022/10/17 00:34:05;;;;;;;2.10;0.70;;;;;;;15.05;100.00;98921.81;15280272;19;20042;-58
2022/10/17 00:39:36;;;;;;;1.75;0.80;;;;;;;15.04;100.00;98915.50;15268534;19;20446;-59
2022/10/17 00:45:23;;;;;;;0.90;0.60;;;;;;;15.05;100.00;98917.19;15275402;19;20019;-59
2022/10/17 00:50:52;;;;;;;0.63;0.60;;;;;;;15.10;100.00;98909.38;15275263;19;20036;-56
2022/10/17 00:56:18;;;;;;;3.03;0.80;;;;;;;15.11;100.00;98902.06;15268832;19;20011;-60
2022/10/17 01:01:45;;;;;;;1.02;0.60;;;;;;;15.08;100.00;98899.72;15274808;19;20026;-55
2022/10/17 01:07:10;;;;;;;2.15;0.60;;;;;;;15.07;100.00;98896.16;15272232;19;20018;-60
2022/10/17 01:12:40;;;;;;;2.13;0.73;;;;;;;15.11;100.00;98896.66;15260686;19;20788;-58
2022/10/17 01:18:18;;;;;;;1.42;0.60;;;;;;;15.15;100.00;98894.41;15272599;19;20015;-58
2022/10/17 01:24:09;;;;;;;2.92;0.73;;;;;;;15.18;100.00;98894.91;15270758;19;20662;-58
2022/10/17 01:29:45;;;;;;;3.55;0.60;;;;;;;15.21;100.00;98894.53;15266102;19;20079;-54
2022/10/17 01:35:19;;;;;;;0.85;0.60;;;;;;;15.27;100.00;98898.41;15265511;19;20019;-59
2022/10/17 01:40:57;;;;;;;1.17;0.60;;;;;;;15.27;100.00;98890.25;15267368;19;20047;-59
2022/10/17 01:46:29;;;;;;;0.98;0.63;;;;;;;15.23;100.00;98887.06;15273399;19;20628;-59
2022/10/17 01:52:01;;;;;;;1.15;0.65;;;;;;;15.23;100.00;98880.78;15271266;19;20023;-58
2022/10/17 01:57:32;;;;;;;2.35;0.80;;;;;;;15.24;100.00;98887.91;15262381;19;20025;-59
2022/10/17 02:03:01;;;;;;;1.73;0.70;;;;;;;15.23;100.00;98886.22;15266560;19;20015;-60
2022/10/17 02:08:43;;;;;;;2.17;0.90;;;;;;;15.17;100.00;98893.22;15265634;19;20035;-61
2022/10/17 02:14:24;;;;;;;1.45;0.75;;;;;;;15.16;100.00;98901.53;15265114;19;20026;-59
2022/10/17 02:20:00;;;;;;;0.70;0.65;;;;;;;15.12;100.00;98905.63;15266011;19;20010;-60
2022/10/17 02:25:37;;;;;;;1.95;0.80;;;;;;;15.07;100.00;98893.47;15265132;19;20047;-58
2022/10/17 02:31:05;;;;;;;1.50;0.70;;;;;;;15.03;100.00;98908.38;15263058;19;20362;-59
2022/10/17 02:36:35;;;;;;;1.17;0.77;;;;;;;15.05;100.00;98910.94;15266621;19;20047;-61
2022/10/17 02:42:13;;;;;;;3.75;0.80;;;;;;;15.04;100.00;98910.09;15263696;19;20038;-59
2022/10/17 02:47:46;;;;;;;1.63;0.98;;;;;;;15.03;100.00;98913.81;15257475;19;20014;-60
2022/10/17 02:53:14;;;;;;;;;;;;;;;14.98;100.00;98910.81;15264609;19;20397;-60
2022/10/17 02:58:44;;;;;;;2.20;0.90;;;;;;;14.99;100.00;98912.50;15263335;19;19914;-61
2022/10/17 03:04:17;;;;;;;2.70;0.90;;;;;;;15.02;100.00;98927.56;15258800;19;20010;-61
2022/10/17 03:09:43;;;;;;;1.08;0.98;;;;;;;15.04;100.00;98931.78;15262254;19;20010;-60
2022/10/17 03:15:10;;;;;;;4.07;1.00;;;;;;;15.08;100.00;98927.72;15266410;19;20019;-62
2022/10/17 03:20:35;;;;;;;0.90;0.90;;;;;;;15.07;100.00;98936.88;15252820;19;20011;-57
2022/10/17 03:26:02;;;;;;;1.50;0.90;;;;;;;15.16;100.00;98944.97;15266909;19;20675;-60
2022/10/17 03:31:30;;;;;;;2.28;1.27;;;;;;;15.16;100.00;98947.69;15263871;19;20411;-61
2022/10/17 03:36:55;;;;;;;1.23;1.00;;;;;;;15.14;100.00;98950.59;15257774;19;20030;-61
2022/10/17 03:42:28;;;;;;;1.42;1.10;;;;;;;15.24;100.00;98962.06;15259245;19;20029;-60
2022/10/17 03:47:55;;;;;;;1.70;1.00;;;;;;;15.23;100.00;98968.50;15259398;19;20026;-61
2022/10/17 03:53:19;;;;;;;1.63;1.10;;;;;;;15.35;100.00;98968.94;15256089;19;20018;-61
2022/10/17 03:58:44;;;;;;;1.00;0.85;;;;;;;15.65;100.00;98958.22;15265906;19;20099;-60
2022/10/17 04:04:13;;;;;;;1.02;0.90;;;;;;;15.66;100.00;98957.22;15277808;19;20011;-60
2022/10/17 04:09:38;;;;;;;1.92;1.05;;;;;;;15.57;100.00;98963.72;15268810;19;20082;-58
2022/10/17 04:15:05;;;;;;;1.77;1.10;;;;;;;15.43;100.00;98967.22;15276899;19;20037;-59
2022/10/17 04:20:33;;;;;;;1.85;1.10;;;;;;;15.31;100.00;98964.91;15271350;19;20018;-58
2022/10/17 04:25:57;;;;;;;1.85;1.10;;;;;;;15.23;100.00;98967.66;15265471;19;20030;-61
2022/10/17 04:31:22;;;;;;;2.45;1.20;;;;;;;15.16;100.00;98972.09;15275134;19;20035;-61
2022/10/17 04:37:07;;;;;;;2.03;1.25;;;;;;;15.12;100.00;98970.75;15270207;19;20454;-61
2022/10/17 04:42:40;;;;;;;1.40;1.10;;;;;;;15.09;100.00;98982.81;15263536;19;20812;-58
2022/10/17 04:48:12;;;;;;;2.60;1.20;;;;;;;15.04;100.00;98983.34;15267314;19;20018;-60
2022/10/17 04:53:40;;;;;;;2.45;1.00;;;;;;;15.00;100.00;98982.00;15270649;19;20034;-61
2022/10/17 04:59:05;;;;;;;1.13;1.00;;;;;;;14.89;100.00;98983.25;15263087;19;20014;-62
2022/10/17 05:04:35;;;;;;;2.15;1.15;;;;;;;14.87;100.00;98981.75;15264528;19;20021;-63
2022/10/17 05:10:03;;;;;;;1.00;0.90;;;;;;;14.89;100.00;98971.53;15263915;19;20419;-59
2022/10/17 05:15:30;;;;;;;1.98;0.90;;;;;;;14.90;100.00;98967.81;15269046;19;20446;-60
2022/10/17 05:20:57;;;;;;;1.15;0.90;;;;;;;14.90;100.00;98967.81;15272079;19;20034;-63
2022/10/17 05:26:25;;;;;;;1.52;0.93;;;;;;;14.95;100.00;98976.28;15271347;19;20033;-63
2022/10/17 05:31:50;;;;;;;2.35;1.10;;;;;;;15.03;100.00;98970.81;15270026;19;20082;-59
2022/10/17 05:37:17;;;;;;;1.25;0.90;;;;;;;15.10;100.00;98979.94;15268310;19;20014;-60
2022/10/17 05:42:56;;;;;;;0.70;0.70;;;;;;;15.17;100.00;98979.22;15264812;19;20018;-60
2022/10/17 05:48:27;;;;;;;2.70;0.90;;;;;;;15.22;100.00;98983.09;15265634;19;20022;-62
2022/10/17 05:53:52;;;;;;;2.50;0.90;;;;;;;15.27;100.00;98988.00;15263814;19;20019;-63
2022/10/17 05:59:20;;;;;;;0.70;0.70;;;;;;;15.38;100.00;98989.47;15258162;19;20577;-61
2022/10/17 06:04:55;;;;;;;0.88;0.80;;;;;;;15.39;100.00;98999.31;15269883;19;20398;-62
2022/10/17 06:10:21;;;;;;;1.90;0.93;;;;;;;15.49;100.00;99012.63;15266575;19;20502;-62
2022/10/17 06:15:50;;;;;;;2.20;0.70;;;;;;;15.57;100.00;99018.88;15265689;19;20021;-62
2022/10/17 06:21:17;;;;;;;1.33;0.80;;;;;;;15.69;100.00;99019.34;15270939;19;20019;-61
2022/10/17 06:26:48;;;;;;;1.50;0.90;;;;;;;15.82;100.00;99020.56;15269722;19;20029;-62
2022/10/17 06:32:15;;;;;;;0.98;0.70;;;;;;;16.10;100.00;99022.78;15262971;19;20074;-62
2022/10/17 06:37:40;;;;;;;1.88;0.80;;;;;;;16.21;100.00;99027.78;15265893;19;20343;-58
2022/10/17 06:43:13;;;;;;;1.92;0.90;;;;;;;16.22;100.00;99037.63;15268186;19;20535;-60
2022/10/17 06:49:05;;;;;;;0.95;0.73;;;;;;;16.21;100.00;99041.38;15260639;19;20019;-60
2022/10/17 06:54:35;;;;;;;1.80;0.93;;;;;;;16.22;100.00;99048.50;15265489;19;20018;-59
2022/10/17 07:00:15;;;;;;;0.75;0.70;;;;;;;16.23;100.00;99052.09;15262642;19;20010;-62
2022/10/17 07:05:44;;;;;;;1.83;0.77;;;;;;;16.27;100.00;99051.53;15256412;19;20524;-63
2022/10/17 07:11:13;;;;;;;1.95;0.98;;;;;;;16.30;100.00;99062.03;15263816;19;20648;-61
2022/10/17 07:16:38;;;;;;;1.05;0.77;;;;;;;16.38;100.00;99068.44;15268239;19;20078;-63
2022/10/17 07:22:09;;;;;;;2.15;0.70;;;;;;;16.44;100.00;99068.56;15263668;19;20017;-61
2022/10/17 07:27:38;;;;;;;1.38;0.80;;;;;;;16.56;100.00;99081.72;15262843;19;20059;-62
2022/10/17 07:33:05;;;;;;;2.67;0.80;;;;;;;16.60;100.00;99077.59;15270417;19;20022;-61
2022/10/17 07:38:33;;;;;;;2.65;0.90;;;;;;;16.74;100.00;99073.22;15269131;19;20015;-62
2022/10/17 07:43:57;;;;;;;1.58;0.95;;;;;;;16.81;100.00;99074.16;15278568;19;20038;-62
2022/10/17 07:49:29;;;;;;;2.53;0.90;;;;;;;16.91;100.00;99080.16;15277947;19;20383;-61
2022/10/17 07:54:57;;;;;;;1.05;0.88;;;;;;;17.00;100.00;99086.41;15275230;19;20063;-62
2022/10/17 08:00:22;;;;;;;1.83;0.90;;;;;;;17.14;100.00;99090.16;15274548;19;20022;-60
2022/10/17 08:05:48;;;;;;;2.65;0.82;;;;;;;17.29;100.00;99086.59;15281150;19;20114;-61
2022/10/17 08:11:17;;;;;;;2.08;0.70;;;;;;;17.49;100.00;99086.88;15268759;19;20018;-62
2022/10/17 08:16:42;;;;;;;2.03;0.80;;;;;;;17.67;100.00;99072.84;15280640;19;20018;-63
2022/10/17 08:22:07;;;;;;;1.73;0.70;;;;;;;17.86;100.00;99091.28;15280169;19;20010;-60
2022/10/17 08:27:35;;;;;;;2.35;0.70;;;;;;;17.99;100.00;99085.16;15274847;19;20078;-64
2022/10/17 08:33:00;;;;;;;1.10;0.65;;;;;;;18.18;100.00;99080.97;15277603;19;20047;-62
2022/10/17 08:38:24;;;;;;;2.72;0.73;;;;;;;18.31;100.00;99069.34;15273588;19;20023;-61
2022/10/17 08:44:10;;;;;;;1.63;0.60;;;;;;;18.48;100.00;99074.50;15268702;19;20010;-61
2022/10/17 08:49:45;;;;;;;1.45;0.80;;;;;;;18.60;100.00;99061.19;15275090;19;20018;-62
2022/10/17 08:55:10;;;;;;;1.75;0.77;;;;;;;18.75;100.00;99064.69;15277953;19;20806;-61
2022/10/17 09:00:40;;;;;;;1.48;0.60;;;;;;;18.89;100.00;99071.06;15266137;19;20047;-62
2022/10/17 09:06:19;;;;;;;3.25;0.73;;;;;;;19.02;100.00;99069.50;15276345;19;20033;-61
2022/10/17 09:11:56;;;;;;;2.70;0.75;;;;;;;19.09;100.00;99068.50;15276594;19;21382;-61
2022/10/17 09:17:39;;;;;;;2.08;0.70;;;;;;;19.29;100.00;99080.56;15269610;19;20023;-60
2022/10/17 09:23:11;;;;;;;1.73;0.85;;;;;;;19.54;100.00;99069.97;15276226;19;20362;-62
2022/10/17 09:28:41;;;;;;;3.17;0.77;;;;;;;19.69;100.00;99069.81;15270366;19;20025;-62
2022/10/17 09:34:16;;;;;;;2.20;1.00;;;;;;;19.75;100.00;99069.03;15273090;19;20086;-62
2022/10/17 09:39:44;;;;;;;2.33;0.68;;;;;;;19.95;100.00;99063.63;15272434;19;20070;-61
2022/10/17 09:45:23;;;;;;;2.72;0.82;;;;;;;20.15;100.00;99055.47;15267052;19;20014;-62
2022/10/17 09:50:53;;;;;;;2.17;0.77;;;;;;;20.38;100.00;99056.13;15268116;19;20029;-62
2022/10/17 09:57:00;;;;;;;1.98;0.70;;;;;;;20.59;100.00;99042.22;15268112;19;20026;-61
2022/10/17 10:02:30;;;;;;;4.55;0.70;;;;;;;20.84;100.00;99055.28;15263948;19;20474;-62
2022/10/17 10:08:07;;;;;;;3.42;0.60;;;;;;;21.04;100.00;99054.41;15271913;19;20022;-61
2022/10/17 10:13:35;;;;;;;0.95;0.60;;;;;;;21.27;100.00;99058.56;15270847;19;20550;-61
2022/10/17 10:19:00;;;;;;;3.10;0.88;;;;;;;21.46;100.00;99051.31;15261135;19;20482;-62
2022/10/17 10:24:29;;;;;;;1.83;0.65;;;;;;;21.61;100.00;99048.34;15268689;19;20358;-60
2022/10/17 10:29:55;;;;;;;1.70;0.60;;;;;;;21.77;100.00;99047.84;15269781;19;20029;-60
2022/10/17 10:35:29;;;;;;;2.50;0.70;;;;;;;21.96;100.00;99047.94;15266084;19;20010;-61
2022/10/17 10:40:57;;;;;;;1.33;0.60;;;;;;;22.16;100.00;99051.41;15268363;19;20572;-60
2022/10/17 10:46:28;;;;;;;1.67;0.70;;;;;;;22.36;100.00;99033.94;15274216;19;20624;-62
2022/10/17 10:51:54;;;;;;;2.60;0.60;;;;;;;22.59;100.00;99027.03;15258161;19;20029;-62
2022/10/17 10:57:29;;;;;;;2.22;0.60;;;;;;;22.75;100.00;99022.84;15266513;19;20382;-62
2022/10/17 11:03:02;;;;;;;1.35;0.50;;;;;;;22.89;100.00;99012.56;15273724;19;20035;-61
2022/10/17 11:08:38;;;;;;;1.05;0.50;;;;;;;23.00;100.00;99019.22;15263462;19;20014;-60
2022/10/17 11:14:12;;;;;;;1.17;0.60;;;;;;;23.08;100.00;99021.66;15281201;19;20006;-61
2022/10/17 11:19:43;;;;;;;1.35;0.60;;;;;;;23.24;100.00;99015.59;15278431;19;20022;-63
2022/10/17 11:25:21;;;;;;;1.35;0.60;;;;;;;23.43;100.00;99003.75;15272880;19;20093;-63
2022/10/17 11:30:54;;;;;;;2.33;0.63;;;;;;;23.60;100.00;99004.78;15278552;19;20379;-62
2022/10/17 11:36:31;;;;;;;1.23;0.70;;;;;;;23.77;100.00;99002.19;15281761;19;20086;-64
2022/10/17 11:42:08;;;;;;;1.13;0.60;;;;;;;23.98;100.00;99002.81;15272150;19;20867;-62
2022/10/17 11:47:45;;;;;;;0.88;0.50;;;;;;;24.16;100.00;98993.63;15279825;19;20368;-61
2022/10/17 11:53:14;;;;;;;1.65;0.57;;;;;;;24.31;100.00;98995.94;15278016;19;20477;-62
2022/10/17 11:58:43;;;;;;;3.15;0.50;;;;;;;24.31;100.00;98995.94;15268374;19;20014;-62
2022/10/17 12:04:28;;;;;;;3.70;0.60;;;;;;;24.36;100.00;98986.94;15281854;19;20576;-62
2022/10/17 12:09:59;;;;;;;1.65;0.65;;;;;;;24.29;100.00;98989.81;15273994;19;20053;-63
2022/10/17 12:15:38;;;;;;;1.27;0.60;;;;;;;24.30;100.00;98975.78;15275951;19;20025;-62
2022/10/17 12:21:06;;;;;;;1.38;0.60;;;;;;;24.37;100.00;98978.44;15275966;19;20021;-61
2022/10/17 12:26:35;;;;;;;1.50;0.50;;;;;;;24.49;100.00;98981.22;15264695;19;20014;-63
2022/10/17 12:32:13;;;;;;;1.88;0.70;;;;;;;24.47;100.00;98992.44;15278791;19;20494;-62
2022/10/17 12:38:23;;;;;;;2.70;0.60;;;;;;;24.49;100.00;98983.97;15279226;19;20017;-62
2022/10/17 12:43:59;;;;;;;1.98;0.50;;;;;;;24.59;100.00;98981.44;15273073;19;20007;-62
2022/10/17 12:49:40;;;;;;;2.67;0.55;;;;;;;24.69;97.46;98993.81;15273978;19;20029;-62
2022/10/17 12:55:18;;;;;;;1.15;0.63;;;;;;;24.83;100.00;98988.88;15276604;19;20017;-63
2022/10/17 13:00:49;;;;;;;4.35;0.63;;;;;;;24.97;100.00;98987.56;15272717;19;20047;-62
2022/10/17 13:06:39;;;;;;;2.35;0.70;;;;;;;25.05;100.00;98986.34;15275653;19;20014;-60
2022/10/17 13:12:03;;;;;;;1.23;0.50;;;;;;;25.12;100.00;98983.47;15272093;19;20556;-62
2022/10/17 13:17:30;;;;;;;0.88;0.50;;;;;;;25.25;100.00;98988.72;15268417;19;20045;-61
2022/10/17 13:23:00;;;;;;;2.85;0.50;;;;;;;25.24;99.04;98984.28;15276673;19;20018;-62
2022/10/17 13:28:27;;;;;;;3.05;0.60;;;;;;;25.29;90.68;98992.63;15268591;19;20021;-62
2022/10/17 13:34:05;;;;;;;1.20;0.60;;;;;;;25.57;100.00;98998.47;15259958;19;20022;-63
2022/10/17 13:39:34;;;;;;;1.73;0.60;;;;;;;25.60;100.00;99006.25;15272030;19;20019;-57
2022/10/17 13:45:25;;;;;;;2.22;0.55;;;;;;;25.78;96.39;99006.06;15265987;19;20017;-59
2022/10/17 13:50:52;;;;;;;1.17;0.60;;;;;;;25.77;95.76;99003.53;15262821;19;20010;-57
2022/10/17 13:56:28;;;;;;;2.88;0.50;;;;;;;25.92;100.00;99006.59;15270882;19;20022;-60
2022/10/17 14:01:56;;;;;;;1.73;0.60;;;;;;;26.03;93.88;98999.34;15267444;19;20018;-61
2022/10/17 14:07:34;;;;;;;0.95;0.40;;;;;;;26.02;90.18;99002.31;15262584;19;20031;-59
2022/10/17 14:13:24;;;;;;;2.03;0.60;;;;;;;26.05;84.95;99001.84;15261357;19;20403;-59
2022/10/17 14:18:55;;;;;;;2.25;0.57;;;;;;;26.20;87.03;99001.28;15267838;19;20453;-59
2022/10/17 14:24:31;;;;;;;1.45;0.50;;;;;;;26.33;85.83;99005.66;15261134;19;20022;-58
2022/10/17 14:30:01;;;;;;;2.17;0.52;;;;;;;26.26;87.94;99003.06;15266770;19;20014;-58
2022/10/17 14:35:29;;;;;;;0.85;0.35;;;;;;;26.25;78.87;99015.19;15263896;19;20326;-59
2022/10/17 14:41:00;;;;;;;2.58;0.40;;;;;;;26.13;90.63;99013.34;15268399;19;20021;-58
2022/10/17 14:46:48;;;;;;;0.60;0.40;;;;;;;25.88;77.50;99024.72;15263541;19;20011;-59
2022/10/17 14:52:41;;;;;;;0.93;0.40;;;;;;;25.88;77.33;99023.91;15257543;19;20098;-61
2022/10/17 14:58:20;;;;;;;1.15;0.40;;;;;;;25.71;75.68;99026.59;15264056;19;20481;-60
2022/10/17 15:03:44;;;;;;;1.95;0.50;;;;;;;25.75;89.55;99028.63;15245414;19;20051;-58
2022/10/17 15:09:12;;;;;;;2.00;0.50;;;;;;;25.81;86.06;99024.03;15256980;19;20020;-51
2022/10/17 15:14:36;;;;;;;3.55;0.55;;;;;;;25.79;85.02;99031.72;15265439;19;20380;-57
2022/10/17 15:20:00;;;;;;;1.38;0.60;;;;;;;25.69;81.10;99035.16;15260471;19;20474;-62
2022/10/17 15:25:28;;;;;;;2.17;0.55;;;;;;;25.55;83.36;99037.34;15260749;19;20034;-59
2022/10/17 15:30:52;;;;;;;2.70;0.70;;;;;;;25.42;89.23;99035.69;15263035;19;20654;-61
2022/10/17 15:36:32;;;;;;;0.52;0.50;;;;;;;25.18;86.06;99034.88;15263737;19;20038;-59
2022/10/17 15:41:59;;;;;;;3.30;0.60;;;;;;;25.01;89.48;99034.75;15253803;19;20014;-58
2022/10/17 15:47:32;;;;;;;1.50;0.50;;;;;;;24.82;98.06;99034.91;15262638;19;20050;-59
2022/10/17 15:52:56;;;;;;;2.08;0.50;;;;;;;24.65;100.00;99031.16;15262594;19;20030;-60
2022/10/17 15:58:27;;;;;;;2.47;0.77;;;;;;;24.42;100.00;99032.81;15268654;19;20025;-59
2022/10/17 16:03:52;;;;;;;2.67;1.00;;;;;;;24.30;100.00;99033.63;15281942;19;20022;-61
2022/10/17 16:09:17;;;;;;;3.05;1.10;;;;;;;24.10;100.00;99035.84;15275736;19;20380;-61
2022/10/17 16:14:51;;;;;;;3.17;0.90;;;;;;;23.88;100.00;99041.84;15260952;19;20457;-58
2022/10/17 16:20:32;;;;;;;2.75;0.73;;;;;;;23.59;100.00;99044.34;15271180;19;20023;-59
2022/10/17 16:25:56;;;;;;;1.70;0.70;;;;;;;23.33;100.00;99042.78;15276225;19;20476;-55
2022/10/17 16:31:35;;;;;;;1.25;0.85;;;;;;;23.13;100.00;99053.97;15271312;19;20338;-58
2022/10/17 16:37:00;;;;;;;1.52;0.80;;;;;;;22.86;100.00;99048.75;15274659;19;20018;-58
2022/10/17 16:42:31;;;;;;;3.20;1.10;;;;;;;22.59;100.00;99063.56;15274606;19;20010;-62
2022/10/17 16:47:58;;;;;;;2.97;1.00;;;;;;;22.31;100.00;99064.81;15266567;19;20582;-60
2022/10/17 16:53:22;;;;;;;2.17;0.80;;;;;;;22.09;100.00;99078.03;15273501;19;20014;-61
2022/10/17 16:58:47;;;;;;;2.88;0.85;;;;;;;21.89;100.00;99077.31;15271793;19;20017;-62
2022/10/17 17:04:15;;;;;;;2.28;0.98;;;;;;;21.71;100.00;99076.13;15270834;19;20421;-62
2022/10/17 17:09:41;;;;;;;1.42;0.98;;;;;;;21.52;100.00;99081.47;15273119;19;20022;-63
2022/10/17 17:15:05;;;;;;;1.95;1.00;;;;;;;21.35;100.00;99082.97;15275806;19;20022;-60
2022/10/17 17:20:33;;;;;;;2.85;0.98;;;;;;;21.05;100.00;99092.53;15266829;19;20359;-60
2022/10/17 17:26:05;;;;;;;1.90;0.90;;;;;;;20.81;100.00;99094.03;15275039;19;20014;-57
2022/10/17 17:31:32;;;;;;;1.73;0.88;;;;;;;20.60;100.00;99095.91;15273601;19;20035;-61
2022/10/17 17:37:00;;;;;;;2.03;0.90;;;;;;;20.48;100.00;99101.16;15265982;19;20023;-60
2022/10/17 17:42:25;;;;;;;2.28;0.90;;;;;;;20.30;100.00;99096.31;15269567;19;20780;-61
2022/10/17 17:47:52;;;;;;;2.60;0.82;;;;;;;20.14;100.00;99089.34;15269565;19;20111;-62
2022/10/17 17:53:19;;;;;;;2.28;1.00;;;;;;;20.02;100.00;99100.06;15263914;19;20017;-61
2022/10/17 17:58:45;;;;;;;5.65;0.90;;;;;;;19.96;100.00;99110.97;15268126;19;20474;-60
2022/10/17 18:04:11;;;;;;;1.15;1.00;;;;;;;19.80;100.00;99118.44;15273386;19;20014;-61
2022/10/17 18:09:38;;;;;;;1.25;0.80;;;;;;;19.82;100.00;99129.16;15263381;19;20014;-60
2022/10/17 18:15:03;;;;;;;3.72;0.75;;;;;;;19.80;100.00;99125.81;15278393;19;20022;-59
2022/10/17 18:20:28;;;;;;;1.27;0.88;;;;;;;19.64;100.00;99116.09;15268175;19;20054;-62
2022/10/17 18:26:00;;;;;;;2.22;0.93;;;;;;;19.56;100.00;99117.91;15255077;19;20378;-61
2022/10/17 18:31:30;;;;;;;1.27;0.80;;;;;;;19.48;100.00;99137.22;15266444;19;20023;-61
2022/10/17 18:36:57;;;;;;;0.85;0.65;;;;;;;19.27;100.00;99142.78;15260869;19;20010;-60
2022/10/17 18:42:32;;;;;;;2.28;0.77;;;;;;;19.18;100.00;99153.00;15257758;19;20026;-60
2022/10/17 18:47:57;;;;;;;2.55;0.82;;;;;;;19.18;100.00;99139.34;15263694;19;20026;-60
2022/10/17 18:53:21;;;;;;;1.40;0.80;;;;;;;19.07;100.00;99138.88;15255990;19;20401;-60
2022/10/17 18:58:48;;;;;;;2.30;0.70;;;;;;;18.98;100.00;99153.72;15260408;19;20018;-60
2022/10/17 19:04:13;;;;;;;5.65;0.80;;;;;;;18.98;100.00;99178.28;15264831;19;20596;-62
2022/10/17 19:09:38;;;;;;;1.33;0.50;;;;;;;18.94;100.00;99177.81;15261747;19;20039;-59
2022/10/17 19:15:05;;;;;;;1.48;0.77;;;;;;;18.91;100.00;99185.53;15258687;19;20011;-62
2022/10/17 19:20:30;;;;;;;1.90;0.80;;;;;;;18.84;100.00;99182.75;15259083;19;20018;-59
2022/10/17 19:25:54;;;;;;;2.05;0.80;;;;;;;18.83;100.00;99183.78;15257156;19;20024;-59
2022/10/17 19:31:22;;;;;;;2.40;1.00;;;;;;;18.79;100.00;99191.53;15276032;19;20014;-60
2022/10/17 19:36:48;;;;;;;1.30;0.90;;;;;;;18.77;100.00;99199.06;15276347;19;20033;-61
2022/10/17 19:42:19;;;;;;;1.88;0.88;;;;;;;18.70;100.00;99194.59;15270914;19;20374;-60
2022/10/17 19:47:46;;;;;;;2.60;1.00;;;;;;;18.60;100.00;99193.03;15271696;19;20021;-60
2022/10/17 19:53:10;;;;;;;1.95;0.90;;;;;;;18.48;100.00;99189.97;15270012;19;20565;-58
2022/10/17 19:58:42;;;;;;;1.48;0.77;;;;;;;18.38;100.00;99194.91;15263359;19;20930;-61
2022/10/17 20:04:09;;;;;;;2.45;0.90;;;;;;;18.28;100.00;99194.38;15277112;19;20075;-59
2022/10/17 20:09:34;;;;;;;3.17;1.05;;;;;;;18.20;100.00;99208.09;15273359;19;20040;-60
2022/10/17 20:14:58;;;;;;;2.45;0.90;;;;;;;18.08;100.00;99211.31;15265472;19;20044;-56
2022/10/17 20:20:26;;;;;;;1.30;0.90;;;;;;;18.00;100.00;99220.47;15273118;19;20367;-59
2022/10/17 20:25:50;;;;;;;3.35;1.10;;;;;;;17.92;100.00;99227.88;15278302;19;20010;-57
2022/10/17 20:31:30;;;;;;;2.45;1.10;;;;;;;17.92;100.00;99234.16;15269305;19;20025;-63
2022/10/17 20:36:57;;;;;;;3.08;1.10;;;;;;;17.92;100.00;99234.16;15274523;19;20018;-61
2022/10/17 20:42:29;;;;;;;2.95;1.20;;;;;;;17.93;100.00;99240.47;15271634;19;20010;-60
2022/10/17 20:47:55;;;;;;;2.45;1.05;;;;;;;17.90;100.00;99240.84;15266610;19;20035;-61
2022/10/17 20:53:22;;;;;;;1.83;1.00;;;;;;;17.85;100.00;99242.25;15268983;19;20029;-58
2022/10/17 20:58:55;;;;;;;1.02;0.90;;;;;;;17.82;100.00;99236.34;15271298;19;20010;-59
2022/10/17 21:04:19;;;;;;;2.13;1.00;;;;;;;17.78;100.00;99249.50;15266786;19;20377;-58
2022/10/17 21:10:06;;;;;;;2.30;1.23;;;;;;;17.73;100.00;99243.75;15267073;19;20014;-61
2022/10/17 21:15:50;;;;;;;2.03;1.08;;;;;;;17.67;100.00;99249.97;15269939;19;20018;-60
2022/10/17 21:21:17;;;;;;;3.38;1.10;;;;;;;17.63;100.00;99248.63;15269913;19;20039;-59
2022/10/17 21:26:46;;;;;;;3.10;1.08;;;;;;;17.54;100.00;99248.75;15271889;19;20362;-55
2022/10/17 21:32:11;;;;;;;3.25;1.02;;;;;;;17.48;100.00;99244.00;15274786;19;20649;-55
2022/10/17 21:37:56;;;;;;;1.63;1.00;;;;;;;17.44;100.00;99242.72;15264445;19;20029;-55
2022/10/17 21:43:30;;;;;;;3.13;1.25;;;;;;;17.44;100.00;99244.56;15271263;19;20022;-55
2022/10/17 21:48:55;;;;;;;3.35;1.10;;;;;;;17.39;100.00;99239.69;15269938;19;20018;-58
2022/10/17 21:54:24;;;;;;;2.67;1.20;;;;;;;17.34;100.00;99242.13;15266507;19;20038;-56
2022/10/17 21:59:52;;;;;;;2.38;1.10;;;;;;;17.28;100.00;99242.88;15268444;19;20363;-59
2022/10/17 22:05:22;;;;;;;2.33;0.98;;;;;;;17.18;100.00;99246.69;15274671;19;20047;-61
2022/10/17 22:10:48;;;;;;;3.03;1.23;;;;;;;17.13;100.00;99246.38;15264928;19;20021;-59
2022/10/17 22:16:16;;;;;;;1.95;1.02;;;;;;;17.08;100.00;99255.13;15269833;19;20007;-58
2022/10/17 22:21:41;;;;;;;2.40;1.23;;;;;;;17.03;100.00;99254.81;15273010;19;20014;-53
2022/10/17 22:27:09;;;;;;;1.98;1.20;;;;;;;17.00;100.00;99257.03;15264249;19;20049;-56
2022/10/17 22:32:36;;;;;;;2.88;1.30;;;;;;;16.90;100.00;99262.72;15272032;19;20043;-54
2022/10/17 22:38:01;;;;;;;2.80;1.10;;;;;;;16.82;100.00;99265.50;15271159;19;20502;-57
2022/10/17 22:43:26;;;;;;;2.05;1.10;;;;;;;16.73;100.00;99272.88;15260345;19;20029;-58
2022/10/17 22:48:55;;;;;;;3.38;1.15;;;;;;;16.69;100.00;99268.81;15265101;19;20010;-56
2022/10/17 22:54:21;;;;;;;1.83;1.10;;;;;;;16.63;100.00;99263.09;15268702;19;20031;-52
2022/10/17 22:59:45;;;;;;;3.88;1.20;;;;;;;16.59;100.00;99264.47;15260512;19;20014;-58
2022/10/17 23:05:13;;;;;;;3.17;1.20;;;;;;;16.56;100.00;99253.94;15267820;19;20780;-58
2022/10/17 23:10:37;;;;;;;1.92;1.25;;;;;;;16.50;100.00;99257.38;15266033;19;20007;-59
2022/10/17 23:16:02;;;;;;;3.92;1.10;;;;;;;16.48;100.00;99254.81;15255157;19;20031;-51
2022/10/17 23:21:29;;;;;;;2.47;1.10;;;;;;;16.41;100.00;99253.00;15270389;19;20011;-55
2022/10/17 23:26:54;;;;;;;3.63;1.15;;;;;;;16.34;100.00;99247.44;15266933;19;20014;-53
2022/10/17 23:32:18;;;;;;;3.08;1.25;;;;;;;16.28;100.00;99248.16;15261762;19;20078;-58
2022/10/17 23:37:45;;;;;;;2.38;1.23;;;;;;;16.23;100.00;99253.28;15268331;19;20007;-57
2022/10/17 23:43:09;;;;;;;2.38;1.20;;;;;;;16.19;100.00;99244.63;15264208;19;20468;-60
2022/10/17 23:48:34;;;;;;;2.30;1.20;;;;;;;16.16;100.00;99250.44;15254487;19;20378;-58
2022/10/17 23:54:01;;;;;;;4.35;1.20;;;;;;;16.06;100.00;99241.63;15267147;19;20015;-59
2022/10/17 23:59:26;;;;;;;2.13;1.30;;;;;;;15.97;100.00;99247.09;15265876;19;20017;-58
